Airfield :
LOGIN :

Register | Disclaimer

   EN    FR    IT 

 










Legend :    VFR   Marginal VFR   IFR   Intensive IFR   Very Intensive IFR
Visi :
Ceiling :
>= 8 km
>= 3000ft
5 to 8 km
1000 to 3000 ft
1500m to 5 km
500 to 1000 ft
800 to 1500m
200 to 500 ft
< 800m
< 200 ft
Symbols :   Thunderstorms  Fog  Heavy snow  Heavy precipitations  Wind > 20 kt
SIGMETs :     Misc.  Thunderstorms  Icing  Turbulence  Mountain Waves  Volcanic Ashes






- Airport Elevation : 522 ft
- IATA code : CRV


LIBC - Santa Anna - Crotone

CURRENT METAR :
  • 061435Z 03004KT 360V060 1400 BR SCT015 BKN030 14/14 Q1021 RERA

EXPIRED METARs :
  • 061414Z VRB02KT 1800 -RA BR SCT015 BKN030 14/14 Q1021 RERA
  • 061350Z 02006KT 330V040 0500 RA FG BKN020 14/14 Q1021
  • 061250Z 03006KT 350V090 0700 FG BKN020 14/14 Q1021

TAF AMD TAF LIBC
Valid from the 06 at 13:00 until the 07 at 12:00 UTC


061343Z 0613/0712 VRB05KT 0700 FG BKN020
BECMG 0619/0621 3000 BR



MET'MAP, your aeronautical weather chart ! - Copyright ORBIFLY December 2007 - Disclaimer

ORBIFLY MET'MAP TEAM :

Programming & Development : Alexandra Zaïnal
Concept & original design : Baudouin d'Aumeries
Assistance for programming : Marc-Olivier Méhu
Technical & hardware support : Manuel Goepfert

Contact : metmap@orbifly.com




SOURCES & CREDITS :

   NOAA